createdAt,value
2022-09-24T00:01:30.976Z,71.70
2022-09-24T00:06:40.983Z,71.70
2022-09-24T00:11:46.530Z,71.70
2022-09-24T00:16:50.047Z,71.40
2022-09-24T00:21:53.565Z,71.40
2022-09-24T00:26:58.443Z,71.50
2022-09-24T00:32:03.124Z,71.60
2022-09-24T00:37:06.526Z,71.50
2022-09-24T00:42:12.340Z,71.40
2022-09-24T00:47:28.677Z,71.30
2022-09-24T00:52:32.363Z,71.30
2022-09-24T00:57:39.328Z,71.30
2022-09-24T01:02:48.511Z,71.30
2022-09-24T01:07:53.582Z,71.30
2022-09-24T01:13:11.023Z,71.40
2022-09-24T01:18:26.316Z,71.50
2022-09-24T01:24:04.377Z,71.60
2022-09-24T01:29:42.000Z,71.60
2022-09-24T01:34:51.704Z,71.80
2022-09-24T01:39:57.856Z,71.90
2022-09-24T01:45:04.781Z,71.70
2022-09-24T01:50:12.809Z,71.70
2022-09-24T01:55:20.874Z,71.70
2022-09-24T02:00:26.054Z,71.80
2022-09-24T02:05:35.790Z,71.60
2022-09-24T02:10:47.416Z,71.60
2022-09-24T02:15:57.750Z,71.50
2022-09-24T02:21:09.703Z,71.60
2022-09-24T02:26:13.372Z,71.40
2022-09-24T02:31:27.225Z,71.40
2022-09-24T02:36:32.069Z,71.40
2022-09-24T02:41:36.689Z,71.60
2022-09-24T02:46:42.826Z,71.70
2022-09-24T02:51:47.574Z,71.60
2022-09-24T02:56:51.185Z,71.70
2022-09-24T03:01:56.263Z,71.70
2022-09-24T03:07:00.285Z,71.70
2022-09-24T03:12:05.283Z,71.80
2022-09-24T03:17:10.175Z,71.80
2022-09-24T03:22:13.884Z,71.80
2022-09-24T03:27:17.410Z,71.90
2022-09-24T03:32:22.586Z,71.80
2022-09-24T03:37:26.357Z,72.10
2022-09-24T03:42:29.926Z,72.10
2022-09-24T03:47:37.458Z,72.20
2022-09-24T03:52:40.955Z,72.30
2022-09-24T03:57:44.793Z,72.30
2022-09-24T04:02:49.794Z,72.50
2022-09-24T04:07:53.617Z,72.30
2022-09-24T04:12:57.298Z,72.50
2022-09-24T04:18:02.411Z,72.50
2022-09-24T04:23:06.562Z,72.70
2022-09-24T04:28:12.032Z,72.70
2022-09-24T04:33:17.049Z,72.80
2022-09-24T04:38:21.411Z,72.80
2022-09-24T04:43:25.042Z,73.30
2022-09-24T04:48:30.792Z,73.20
2022-09-24T04:53:36.093Z,73.50
2022-09-24T04:58:39.829Z,73.80
2022-09-24T05:03:46.964Z,73.60
2022-09-24T05:08:50.514Z,73.70
2022-09-24T05:13:54.045Z,73.70
2022-09-24T05:18:59.621Z,74.00
2022-09-24T05:24:03.812Z,73.70
2022-09-24T05:29:07.615Z,74.10
2022-09-24T05:34:14.256Z,74.10
2022-09-24T05:39:17.807Z,74.30
2022-09-24T05:44:21.816Z,74.10
2022-09-24T05:49:26.895Z,74.40
2022-09-24T05:54:30.442Z,74.40
2022-09-24T05:59:34.186Z,74.60
2022-09-24T06:04:39.078Z,74.70
2022-09-24T06:09:42.543Z,74.80
2022-09-24T06:14:46.287Z,74.80
2022-09-24T06:19:51.077Z,74.90
2022-09-24T06:24:54.569Z,74.70
2022-09-24T06:29:58.093Z,74.50
2022-09-24T06:35:02.956Z,74.50
2022-09-24T06:40:09.871Z,75.00
2022-09-24T06:45:14.375Z,74.80
2022-09-24T06:50:19.442Z,75.00
2022-09-24T06:55:23.765Z,74.80
2022-09-24T07:00:27.298Z,74.80
2022-09-24T07:05:32.615Z,74.60
2022-09-24T07:10:36.145Z,74.60
2022-09-24T07:15:39.749Z,74.70
2022-09-24T07:20:44.777Z,74.70
2022-09-24T07:25:48.756Z,74.50
2022-09-24T07:30:59.870Z,73.50
2022-09-24T07:36:08.630Z,73.20
2022-09-24T07:41:12.224Z,72.80
2022-09-24T07:46:15.955Z,72.40
2022-09-24T07:51:20.991Z,72.00
2022-09-24T07:56:25.691Z,71.80
2022-09-24T08:01:29.294Z,71.50
2022-09-24T08:06:39.511Z,71.20
2022-09-24T08:11:43.712Z,71.10
2022-09-24T08:16:47.237Z,71.10
2022-09-24T08:21:52.219Z,70.90
2022-09-24T08:26:55.773Z,71.60
2022-09-24T08:31:59.285Z,70.50
2022-09-24T08:37:04.271Z,71.00
2022-09-24T08:42:15.154Z,71.10
2022-09-24T08:47:37.399Z,71.10
2022-09-24T08:53:02.751Z,71.90
2022-09-24T08:58:43.510Z,71.70
2022-09-24T09:03:56.163Z,71.90
2022-09-24T09:09:10.785Z,72.10
2022-09-24T09:14:20.253Z,72.10
2022-09-24T09:19:30.123Z,72.20
2022-09-24T09:24:45.898Z,71.90
2022-09-24T09:30:00.489Z,71.70
2022-09-24T09:35:16.470Z,71.70
2022-09-24T09:40:34.546Z,71.80
2022-09-24T09:45:47.978Z,71.90
2022-09-24T09:50:56.978Z,71.80
2022-09-24T09:56:06.532Z,72.40
2022-09-24T10:01:14.160Z,72.50
2022-09-24T10:06:27.506Z,72.60
2022-09-24T10:11:32.492Z,73.00
2022-09-24T10:16:40.708Z,72.70
2022-09-24T10:21:44.526Z,73.00
2022-09-24T10:26:51.035Z,73.20
2022-09-24T10:31:55.200Z,73.00
2022-09-24T10:37:08.697Z,73.00
2022-09-24T10:42:29.754Z,72.50
2022-09-24T10:47:43.636Z,72.60
2022-09-24T10:52:54.280Z,72.60
2022-09-24T10:58:08.664Z,72.60
2022-09-24T11:04:07.026Z,72.60
2022-09-24T11:09:25.606Z,72.60
2022-09-24T11:15:05.993Z,72.70
2022-09-24T11:20:32.302Z,72.70
2022-09-24T11:25:47.872Z,72.90
2022-09-24T11:31:07.699Z,72.90
2022-09-24T11:36:32.117Z,73.00
2022-09-24T11:41:50.893Z,72.90
2022-09-24T11:47:15.330Z,73.00
2022-09-24T11:52:32.627Z,73.10
2022-09-24T11:57:42.741Z,73.10
2022-09-24T12:02:52.041Z,73.90
2022-09-24T12:08:01.284Z,73.30
2022-09-24T12:13:18.282Z,73.30
2022-09-24T12:18:28.602Z,74.10
2022-09-24T12:23:40.251Z,73.40
2022-09-24T12:29:13.787Z,73.40
2022-09-24T12:34:28.957Z,73.30
2022-09-24T12:39:39.932Z,73.40
2022-09-24T12:44:50.022Z,73.40
2022-09-24T12:49:59.619Z,73.40
2022-09-24T12:55:06.136Z,73.40
2022-09-24T13:00:42.842Z,73.30
2022-09-24T13:05:50.382Z,73.40
2022-09-24T13:11:00.658Z,73.40
2022-09-24T13:16:07.576Z,73.40
2022-09-24T13:21:24.246Z,73.40
2022-09-24T13:26:37.440Z,73.40
2022-09-24T13:31:49.055Z,73.40
2022-09-24T13:37:00.824Z,73.40
2022-09-24T13:42:22.045Z,73.40
2022-09-24T13:47:36.297Z,73.40
2022-09-24T13:52:47.131Z,73.40
2022-09-24T13:57:50.922Z,73.40
2022-09-24T14:03:02.178Z,73.40
2022-09-24T14:08:12.973Z,73.40
2022-09-24T14:13:21.900Z,73.50
2022-09-24T14:18:27.550Z,73.40
2022-09-24T14:23:40.054Z,73.40
2022-09-24T14:28:43.938Z,73.40
2022-09-24T14:33:47.739Z,74.20
2022-09-24T14:39:01.759Z,73.40
2022-09-24T14:44:10.524Z,73.80
2022-09-24T14:49:23.522Z,75.30
2022-09-24T14:54:34.369Z,76.10
2022-09-24T14:59:41.630Z,76.20
2022-09-24T15:04:49.203Z,77.00
2022-09-24T15:09:58.089Z,77.10
2022-09-24T15:15:05.512Z,76.60
2022-09-24T15:20:13.632Z,76.70
2022-09-24T15:25:18.657Z,77.10
2022-09-24T15:30:23.769Z,77.10
2022-09-24T15:35:27.216Z,77.20
2022-09-24T15:40:36.677Z,77.50
2022-09-24T15:45:40.152Z,77.80
2022-09-24T15:50:47.694Z,77.30
2022-09-24T15:55:56.496Z,76.80
2022-09-24T16:01:00.007Z,76.40
2022-09-24T16:06:03.656Z,76.00
2022-09-24T16:11:09.498Z,76.30
2022-09-24T16:16:13.161Z,77.10
2022-09-24T16:21:17.380Z,77.20
2022-09-24T16:26:22.537Z,77.70
2022-09-24T16:31:26.243Z,80.20
2022-09-24T16:36:30.075Z,80.40
2022-09-24T16:41:36.960Z,80.80
2022-09-24T16:46:40.863Z,81.00
2022-09-24T16:51:45.296Z,81.10
2022-09-24T16:56:52.374Z,81.20
2022-09-24T17:01:56.211Z,81.40
2022-09-24T17:07:00.403Z,81.40
2022-09-24T17:12:06.145Z,81.40
2022-09-24T17:17:09.993Z,81.40
2022-09-24T17:22:13.700Z,81.50
2022-09-24T17:27:18.941Z,81.40
2022-09-24T17:32:22.842Z,81.40
2022-09-24T17:37:27.326Z,81.40
2022-09-24T17:42:33.285Z,81.60
2022-09-24T17:47:50.754Z,81.60
2022-09-24T17:52:54.532Z,81.10
2022-09-24T17:57:59.618Z,81.30
2022-09-24T18:03:03.551Z,81.30
2022-09-24T18:08:08.368Z,81.00
2022-09-24T18:13:14.267Z,81.40
2022-09-24T18:18:18.027Z,80.90
2022-09-24T18:23:22.848Z,81.10
2022-09-24T18:28:28.272Z,79.80
2022-09-24T18:33:32.324Z,78.80
2022-09-24T18:38:36.597Z,78.10
2022-09-24T18:43:43.198Z,77.40
2022-09-24T18:48:51.759Z,77.00
2022-09-24T18:53:58.496Z,76.70
2022-09-24T18:59:09.977Z,76.50
2022-09-24T19:04:15.834Z,76.20
2022-09-24T19:09:21.294Z,75.90
2022-09-24T19:14:27.241Z,75.80
2022-09-24T19:19:30.872Z,75.70
2022-09-24T19:24:34.687Z,75.70
2022-09-24T19:29:43.139Z,75.40
2022-09-24T19:34:47.467Z,75.60
2022-09-24T19:39:51.440Z,75.70
2022-09-24T19:44:57.056Z,75.80
2022-09-24T19:50:01.067Z,76.10
2022-09-24T19:55:05.460Z,76.40
2022-09-24T20:00:12.460Z,76.50
2022-09-24T20:05:16.212Z,76.80
2022-09-24T20:10:20.627Z,76.30
2022-09-24T20:15:25.837Z,75.90
2022-09-24T20:20:29.571Z,75.40
2022-09-24T20:25:50.615Z,74.80
2022-09-24T20:30:55.878Z,74.60
2022-09-24T20:36:03.433Z,74.40
2022-09-24T20:41:09.138Z,74.30
2022-09-24T20:46:19.000Z,74.20
2022-09-24T20:51:23.242Z,74.40
2022-09-24T20:56:30.659Z,74.50
2022-09-24T21:01:35.602Z,74.60
2022-09-24T21:06:39.323Z,74.70
2022-09-24T21:11:43.845Z,74.90
2022-09-24T21:16:49.460Z,75.10
2022-09-24T21:21:53.869Z,75.60
2022-09-24T21:27:00.522Z,75.80
2022-09-24T21:32:05.738Z,76.20
2022-09-24T21:37:09.410Z,76.40
2022-09-24T21:42:14.199Z,76.70
2022-09-24T21:47:19.331Z,77.00
2022-09-24T21:52:23.599Z,77.30
2022-09-24T21:57:27.133Z,77.60
2022-09-24T22:02:32.496Z,77.70
2022-09-24T22:07:36.413Z,77.90
2022-09-24T22:12:40.142Z,78.10
2022-09-24T22:17:45.109Z,78.20
2022-09-24T22:22:49.029Z,78.40
2022-09-24T22:27:52.578Z,78.40
2022-09-24T22:32:57.416Z,78.50
2022-09-24T22:38:01.460Z,78.60
2022-09-24T22:43:05.077Z,78.80
2022-09-24T22:48:10.079Z,78.80
2022-09-24T22:53:13.575Z,78.80
2022-09-24T22:58:17.101Z,78.90
2022-09-24T23:03:22.114Z,79.00
2022-09-24T23:08:26.014Z,79.20
2022-09-24T23:13:29.531Z,79.30
2022-09-24T23:18:34.552Z,79.40
2022-09-24T23:23:38.818Z,79.30
2022-09-24T23:28:42.921Z,79.40
2022-09-24T23:33:47.942Z,79.50
2022-09-24T23:38:52.715Z,79.50
2022-09-24T23:43:56.398Z,79.50
2022-09-24T23:49:01.232Z,79.60
2022-09-24T23:54:05.008Z,79.60
2022-09-24T23:59:09.160Z,79.70
